Terminal Aerodrome Forecast
Issued by NWS

Home | Current Version | Previous Version | Text Only | Print | Product List | Glossary On
Versions: 1 2 3 4 5 6 7 8 9 10 11 12 13 14 15 16 17 18 19 20 21 22 23 24 25 26 27 28 29 30 31 32 33
000
FTUS41 KILN 210500
TAFLUK
TAF
KLUK 210538Z 2106/2206 24008KT P6SM BKN090
     FM210900 22008KT P6SM SKC
     FM211300 23015G25KT P6SM SKC
     FM211600 25021G33KT P6SM BKN080
     FM220000 24010G16KT P6SM SCT080
     FM220300 21008KT P6SM VCSH BKN060=

USA.gov is the U.S. government's official web portal to all federal, state and local government web resources and services.